Time;durP1;ratioP1;P1;durP2;ratioP2;P2;SDS_P1;SDS_P2;PMS_P1;PMS_P2;Temp;Humidity;BMP_temperature;BMP_pressure;BME280_temperature;BME280_humidity;BME280_pressure;Samples;Min_cycle;Max_cycle;Signal;HPM_P1;HPM_P2
2023/12/17 00:00:03;;;;;;;18.83;11.05;;;;;;;10.47;86.96;103568.81;7394312;19;20030;-60
2023/12/17 00:02:31;;;;;;;15.25;9.57;;;;;;;10.45;86.72;103575.91;7393293;19;20043;-62
2023/12/17 00:04:59;;;;;;;17.20;10.50;;;;;;;10.46;86.50;103567.94;7394279;19;20397;-60
2023/12/17 00:07:28;;;;;;;17.40;10.23;;;;;;;10.47;86.52;103566.16;7394270;19;20078;-61
2023/12/17 00:09:56;;;;;;;17.17;10.15;;;;;;;10.51;86.16;103572.25;7393583;19;20029;-62
2023/12/17 00:12:23;;;;;;;16.52;9.93;;;;;;;10.54;85.79;103573.03;7393712;19;20019;-62
2023/12/17 00:14:51;;;;;;;16.27;10.15;;;;;;;10.57;85.60;103574.69;7394061;19;20025;-61
2023/12/17 00:17:21;;;;;;;17.25;9.50;;;;;;;10.49;85.60;103562.56;7393673;19;20022;-62
2023/12/17 00:19:49;;;;;;;16.50;9.75;;;;;;;10.58;85.46;103556.13;7394482;19;20018;-62
2023/12/17 00:22:17;;;;;;;15.13;8.63;;;;;;;10.51;85.64;103561.66;7393669;19;20066;-62
2023/12/17 00:24:45;;;;;;;14.00;9.18;;;;;;;10.57;85.15;103543.78;7393924;19;20019;-62
2023/12/17 00:27:15;;;;;;;12.98;8.45;;;;;;;10.58;84.87;103550.81;7394680;19;20363;-62
2023/12/17 00:29:43;;;;;;;14.18;8.35;;;;;;;10.56;84.73;103528.78;7393671;19;20014;-61
2023/12/17 00:32:11;;;;;;;14.50;8.65;;;;;;;10.61;84.79;103526.03;7392403;19;20040;-61
2023/12/17 00:34:39;;;;;;;14.75;8.27;;;;;;;10.58;84.40;103521.69;7394430;19;20020;-60
2023/12/17 00:37:07;;;;;;;13.70;8.45;;;;;;;10.55;84.72;103515.59;7393563;19;20023;-60
2023/12/17 00:39:35;;;;;;;14.30;8.38;;;;;;;10.61;84.34;103516.28;7391486;19;20116;-60
2023/12/17 00:42:03;;;;;;;14.80;8.75;;;;;;;10.66;83.83;103519.66;7393382;19;20086;-59
2023/12/17 00:44:31;;;;;;;13.65;7.60;;;;;;;10.68;83.50;103520.50;7393548;19;20018;-59
2023/12/17 00:47:00;;;;;;;12.32;7.43;;;;;;;10.66;83.29;103524.97;7393364;19;20019;-60
2023/12/17 00:49:28;;;;;;;13.15;7.30;;;;;;;10.72;83.14;103529.19;7397471;19;20036;-59
2023/12/17 00:51:56;;;;;;;14.68;7.13;;;;;;;10.71;82.57;103538.94;7392594;19;20010;-59
2023/12/17 00:54:24;;;;;;;12.45;7.25;;;;;;;10.70;82.67;103536.34;7393486;19;20033;-59
2023/12/17 00:56:52;;;;;;;13.52;6.90;;;;;;;10.67;82.33;103531.13;7392929;19;20032;-59
2023/12/17 00:59:19;;;;;;;11.73;6.82;;;;;;;10.68;82.29;103522.25;7391232;19;20015;-59
2023/12/17 01:01:47;;;;;;;10.82;6.32;;;;;;;10.68;82.13;103523.16;7390101;19;20029;-59
2023/12/17 01:04:15;;;;;;;14.13;7.40;;;;;;;10.57;81.80;103504.06;7392697;19;20018;-59
2023/12/17 01:06:43;;;;;;;10.68;6.57;;;;;;;10.69;81.76;103516.06;7392530;19;20011;-60
2023/12/17 01:09:11;;;;;;;13.90;6.85;;;;;;;10.74;81.83;103540.66;7393379;19;20023;-59
2023/12/17 01:11:39;;;;;;;11.93;7.32;;;;;;;10.77;81.55;103535.25;7389674;19;20392;-60
2023/12/17 01:14:07;;;;;;;10.85;6.60;;;;;;;10.72;81.39;103532.75;7392403;19;20490;-60
2023/12/17 01:16:35;;;;;;;12.40;6.80;;;;;;;10.72;81.58;103532.75;7390824;19;20018;-59
2023/12/17 01:19:02;;;;;;;11.20;6.57;;;;;;;10.73;80.93;103546.88;7391312;19;20045;-59
2023/12/17 01:21:31;;;;;;;11.82;6.00;;;;;;;10.67;81.13;103531.13;7390170;19;20047;-59
2023/12/17 01:23:58;;;;;;;11.27;5.80;;;;;;;10.75;81.07;103539.72;7392475;19;20022;-59
2023/12/17 01:26:29;;;;;;;10.88;6.10;;;;;;;10.73;81.03;103549.53;7390386;19;20094;-59
2023/12/17 01:28:56;;;;;;;10.15;6.28;;;;;;;10.75;80.98;103555.63;7392212;19;20027;-58
2023/12/17 01:31:25;;;;;;;10.25;6.07;;;;;;;10.74;80.88;103541.50;7390135;19;20018;-60
2023/12/17 01:33:52;;;;;;;10.65;5.53;;;;;;;10.78;80.70;103539.63;7392167;19;20039;-60
2023/12/17 01:36:21;;;;;;;11.82;6.20;;;;;;;10.73;80.47;103533.63;7392074;19;20043;-58
2023/12/17 01:38:49;;;;;;;10.38;5.38;;;;;;;10.78;80.56;103520.22;7391100;19;20010;-60
2023/12/17 01:41:16;;;;;;;11.70;5.82;;;;;;;10.78;80.52;103523.72;7393470;19;20023;-59
2023/12/17 01:43:44;;;;;;;9.80;5.05;;;;;;;10.73;80.32;103512.41;7390378;19;20554;-58
2023/12/17 01:46:13;;;;;;;10.15;5.95;;;;;;;10.81;80.18;103515.69;7391569;19;20045;-59
2023/12/17 01:48:41;;;;;;;10.88;5.85;;;;;;;10.81;80.42;103523.66;7391717;19;20043;-58
2023/12/17 01:51:10;;;;;;;11.02;5.80;;;;;;;10.74;80.14;103533.56;7389343;19;20033;-58
2023/12/17 01:53:39;;;;;;;9.90;6.00;;;;;;;10.72;80.45;103538.06;7391586;19;20039;-59
2023/12/17 01:56:08;;;;;;;13.48;6.55;;;;;;;10.62;80.55;103522.47;7391704;19;20385;-59
2023/12/17 01:58:36;;;;;;;11.02;5.72;;;;;;;10.72;80.33;103531.84;7393088;19;20067;-59
2023/12/17 02:01:04;;;;;;;11.38;5.15;;;;;;;10.79;80.05;103538.72;7388563;19;20424;-58
2023/12/17 02:03:32;;;;;;;9.65;5.63;;;;;;;10.83;79.97;103532.41;7388204;19;20022;-58
2023/12/17 02:06:00;;;;;;;11.60;5.03;;;;;;;10.81;79.82;103536.91;7388657;19;20021;-57
2023/12/17 02:08:29;;;;;;;9.52;4.88;;;;;;;10.79;80.05;103527.25;7391625;19;20018;-59
2023/12/17 02:10:56;;;;;;;9.40;5.30;;;;;;;10.75;79.73;103526.47;7387743;19;20042;-59
2023/12/17 02:13:25;;;;;;;10.07;5.68;;;;;;;10.80;80.05;103528.97;7389365;19;20022;-59
2023/12/17 02:15:53;;;;;;;9.10;5.20;;;;;;;10.78;79.99;103531.69;7390788;19;20483;-58
2023/12/17 02:18:21;;;;;;;9.50;5.20;;;;;;;10.79;80.01;103520.16;7390245;19;20019;-59
2023/12/17 02:20:50;;;;;;;10.45;5.45;;;;;;;10.80;80.10;103511.31;7388873;19;20027;-56
2023/12/17 02:23:18;;;;;;;8.88;4.97;;;;;;;10.76;80.12;103506.13;7390471;19;20058;-59
2023/12/17 02:25:46;;;;;;;11.13;5.40;;;;;;;10.84;79.80;103506.78;7390557;19;20642;-60
2023/12/17 02:28:14;;;;;;;10.52;5.10;;;;;;;10.77;79.89;103491.97;7392565;19;20024;-59
2023/12/17 02:30:42;;;;;;;9.20;5.13;;;;;;;10.76;79.94;103500.81;7388543;19;20099;-58
2023/12/17 02:33:09;;;;;;;9.45;5.07;;;;;;;10.78;80.09;103504.31;7390240;19;20022;-58
2023/12/17 02:35:38;;;;;;;10.15;5.40;;;;;;;10.79;79.87;103498.94;7390188;19;20590;-59
2023/12/17 02:38:05;;;;;;;9.48;4.88;;;;;;;10.81;79.93;103498.94;7390393;19;20018;-59
2023/12/17 02:40:33;;;;;;;10.07;4.65;;;;;;;10.73;79.78;103494.72;7389048;19;20496;-64
2023/12/17 02:43:02;;;;;;;9.88;5.10;;;;;;;10.77;79.87;103491.97;7390289;19;20506;-60
2023/12/17 02:45:29;;;;;;;10.77;5.15;;;;;;;10.78;79.87;103496.38;7389560;19;20014;-63
2023/12/17 02:47:57;;;;;;;8.68;4.80;;;;;;;10.79;79.76;103488.34;7390195;19;20022;-60
2023/12/17 02:50:25;;;;;;;10.52;4.75;;;;;;;10.83;79.62;103497.94;7388128;19;20022;-59
2023/12/17 02:52:53;;;;;;;9.85;4.95;;;;;;;10.81;79.39;103496.28;7389974;19;20500;-57
2023/12/17 02:55:21;;;;;;;9.00;4.75;;;;;;;10.83;79.36;103499.72;7393235;19;20029;-59
2023/12/17 02:57:49;;;;;;;8.73;4.90;;;;;;;10.85;79.39;103497.91;7397150;19;20021;-59
2023/12/17 03:00:17;;;;;;;9.00;4.65;;;;;;;10.83;79.34;103492.63;7394005;19;20023;-60
2023/12/17 03:02:45;;;;;;;10.98;4.93;;;;;;;10.82;79.53;103501.50;7395563;19;20022;-59
2023/12/17 03:05:13;;;;;;;10.60;5.03;;;;;;;10.85;79.50;103500.56;7397120;19;20486;-59
2023/12/17 03:07:41;;;;;;;10.57;5.10;;;;;;;10.84;79.73;103497.06;7395167;19;20040;-59
2023/12/17 03:10:09;;;;;;;10.32;5.28;;;;;;;10.82;79.69;103495.34;7395950;19;20015;-59
2023/12/17 03:12:37;;;;;;;8.48;4.45;;;;;;;10.83;79.40;103495.28;7396874;19;20631;-59
2023/12/17 03:15:06;;;;;;;8.85;4.60;;;;;;;10.81;79.65;103498.94;7396517;19;20014;-59
2023/12/17 03:17:35;;;;;;;10.77;5.00;;;;;;;10.84;79.30;103483.78;7396716;19;20353;-60
2023/12/17 03:20:07;;;;;;;8.13;4.57;;;;;;;10.80;78.80;103487.47;7395542;19;20022;-59
2023/12/17 03:22:34;;;;;;;12.95;4.45;;;;;;;10.80;78.98;103475.97;7396684;19;20019;-59
2023/12/17 03:25:02;;;;;;;8.13;4.20;;;;;;;10.81;78.77;103465.31;7394339;19;20029;-59
2023/12/17 03:27:30;;;;;;;11.20;4.72;;;;;;;10.80;78.65;103463.59;7394223;19;20082;-59
2023/12/17 03:29:58;;;;;;;9.25;4.22;;;;;;;10.85;78.31;103464.31;7395618;19;20018;-59
2023/12/17 03:32:26;;;;;;;9.43;4.05;;;;;;;10.83;78.58;103460.84;7395164;19;20022;-59
2023/12/17 03:34:54;;;;;;;11.23;4.25;;;;;;;10.85;78.50;103455.50;7395617;19;20007;-59
2023/12/17 03:37:22;;;;;;;8.60;4.32;;;;;;;10.77;78.43;103446.94;7395193;19;20320;-59
2023/12/17 03:39:50;;;;;;;9.05;4.45;;;;;;;10.84;78.56;103459.94;7394251;19;20030;-59
2023/12/17 03:42:18;;;;;;;10.45;4.47;;;;;;;10.76;78.49;103448.72;7394675;19;20018;-58
2023/12/17 03:44:46;;;;;;;9.95;4.53;;;;;;;10.80;78.64;103466.25;7395424;19;20035;-57
2023/12/17 03:47:14;;;;;;;8.45;4.13;;;;;;;10.77;78.35;103460.19;7393937;19;20022;-59
2023/12/17 03:49:42;;;;;;;8.55;4.03;;;;;;;10.85;78.45;103466.97;7393602;19;20014;-60
2023/12/17 03:52:10;;;;;;;9.52;4.22;;;;;;;10.90;78.17;103450.91;7394424;19;20026;-58
2023/12/17 03:54:38;;;;;;;9.65;4.28;;;;;;;10.84;78.44;103449.34;7395792;19;20023;-57
2023/12/17 03:57:06;;;;;;;9.13;4.15;;;;;;;10.83;78.25;103450.22;7394936;19;20035;-59
2023/12/17 03:59:36;;;;;;;9.10;4.13;;;;;;;10.83;78.33;103447.56;7393751;19;20029;-58
2023/12/17 04:02:04;;;;;;;9.98;4.13;;;;;;;10.81;78.23;103448.56;7392382;19;20368;-59
2023/12/17 04:04:32;;;;;;;12.13;4.35;;;;;;;10.72;78.50;103432.03;7393941;19;20494;-59
2023/12/17 04:07:00;;;;;;;8.77;4.13;;;;;;;10.81;78.38;103444.13;7393989;19;20047;-59
2023/12/17 04:09:28;;;;;;;9.88;4.05;;;;;;;10.84;78.63;103457.28;7392890;19;20032;-60
2023/12/17 04:11:56;;;;;;;9.07;3.97;;;;;;;10.87;78.35;103459.81;7393697;19;20010;-58
2023/12/17 04:14:25;;;;;;;8.63;4.40;;;;;;;10.84;78.44;103454.63;7394828;19;20049;-59
2023/12/17 04:16:52;;;;;;;9.05;3.80;;;;;;;10.85;78.50;103448.41;7393758;19;20365;-60
2023/12/17 04:19:20;;;;;;;10.20;4.30;;;;;;;10.89;78.31;103451.84;7393525;19;20019;-59
2023/12/17 04:21:48;;;;;;;9.93;4.13;;;;;;;10.85;78.54;103451.06;7392166;19;20018;-61
2023/12/17 04:24:16;;;;;;;8.63;4.15;;;;;;;10.80;78.59;103453.00;7394310;19;20031;-60
2023/12/17 04:26:44;;;;;;;8.15;4.05;;;;;;;10.83;78.97;103454.66;7394284;19;20074;-59
2023/12/17 04:29:12;;;;;;;9.00;4.20;;;;;;;10.80;78.97;103447.69;7394318;19;20019;-60
2023/12/17 04:31:39;;;;;;;11.60;4.07;;;;;;;10.82;78.70;103445.84;7391521;19;20484;-60
2023/12/17 04:34:08;;;;;;;9.25;4.10;;;;;;;10.86;78.77;103443.97;7394426;19;20030;-60
2023/12/17 04:36:38;;;;;;;10.48;4.20;;;;;;;10.81;78.83;103451.22;7394534;19;20642;-60
2023/12/17 04:39:07;;;;;;;10.32;4.50;;;;;;;10.82;78.71;103447.63;7393277;19;20018;-60
2023/12/17 04:41:36;;;;;;;10.32;4.20;;;;;;;10.89;78.58;103447.41;7391665;19;20014;-60
2023/12/17 04:44:04;;;;;;;9.73;3.88;;;;;;;10.83;78.70;103444.06;7392040;19;20010;-60
2023/12/17 04:46:32;;;;;;;9.82;4.00;;;;;;;10.85;78.70;103443.09;7393157;19;20486;-61
2023/12/17 04:49:00;;;;;;;11.23;4.70;;;;;;;10.87;78.58;103449.22;7393483;19;20026;-60
2023/12/17 04:51:29;;;;;;;8.90;4.38;;;;;;;10.88;78.58;103450.09;7391326;19;20792;-60
2023/12/17 04:53:57;;;;;;;8.57;4.13;;;;;;;10.86;78.51;103449.28;7393016;19;20017;-60
2023/12/17 04:56:25;;;;;;;7.82;3.95;;;;;;;10.93;78.25;103459.63;7392863;19;20011;-60
2023/12/17 04:58:53;;;;;;;8.57;4.55;;;;;;;10.91;78.32;103452.63;7392750;19;20022;-60
2023/12/17 05:01:21;;;;;;;11.13;4.28;;;;;;;10.95;78.55;103454.28;7390857;19;20014;-61
2023/12/17 05:03:49;;;;;;;9.30;4.50;;;;;;;10.95;78.71;103448.97;7392975;19;20014;-61
2023/12/17 05:06:17;;;;;;;9.90;4.75;;;;;;;10.82;78.51;103427.28;7393221;19;20033;-61
2023/12/17 05:08:45;;;;;;;8.63;4.40;;;;;;;10.86;78.90;103442.19;7393280;19;20015;-60
2023/12/17 05:11:12;;;;;;;9.73;4.45;;;;;;;10.87;78.86;103446.56;7389857;19;20035;-60
2023/12/17 05:13:40;;;;;;;11.77;4.70;;;;;;;10.90;78.52;103432.34;7391130;19;20018;-60
2023/12/17 05:16:08;;;;;;;13.18;5.28;;;;;;;10.88;78.60;103429.75;7392589;19;20035;-60
2023/12/17 05:18:36;;;;;;;11.32;4.82;;;;;;;10.87;78.59;103433.31;7390890;19;20018;-60
2023/12/17 05:21:06;;;;;;;9.68;5.15;;;;;;;10.94;78.61;103426.03;7388555;19;20051;-60
2023/12/17 05:23:34;;;;;;;10.25;4.82;;;;;;;10.88;78.53;103428.91;7393005;19;20768;-61
2023/12/17 05:26:02;;;;;;;9.10;5.03;;;;;;;10.86;78.60;103428.94;7392267;19;20039;-65
2023/12/17 05:28:30;;;;;;;11.45;5.72;;;;;;;10.95;78.50;103435.72;7391822;19;20022;-67
2023/12/17 05:30:58;;;;;;;9.18;4.95;;;;;;;10.98;78.10;103446.22;7390086;19;20014;-62
2023/12/17 05:33:26;;;;;;;11.13;5.28;;;;;;;10.91;78.25;103447.34;7392069;19;20074;-63
2023/12/17 05:35:54;;;;;;;10.93;5.90;;;;;;;10.88;78.20;103436.84;7392160;19;20066;-62
2023/12/17 05:38:22;;;;;;;10.30;5.45;;;;;;;10.88;78.51;103452.75;7391347;19;20031;-63
2023/12/17 05:40:50;;;;;;;12.55;5.45;;;;;;;10.91;78.21;103448.22;7389642;19;20022;-63
2023/12/17 05:43:18;;;;;;;12.10;5.20;;;;;;;10.97;78.01;103452.44;7391600;19;20015;-63
2023/12/17 05:45:46;;;;;;;11.23;5.75;;;;;;;10.97;77.98;103458.63;7391967;19;20019;-63
2023/12/17 05:48:24;;;;;;;11.68;5.10;;;;;;;10.93;78.35;103454.34;7389980;19;20010;-63
2023/12/17 05:50:53;;;;;;;9.52;5.10;;;;;;;10.92;78.20;103455.25;7389488;19;20104;-63
2023/12/17 05:53:20;;;;;;;10.13;4.88;;;;;;;11.00;78.04;103454.16;7391335;19;20026;-61
2023/12/17 05:56:00;;;;;;;11.02;5.50;;;;;;;11.00;77.98;103456.81;7391309;19;20781;-62
2023/12/17 05:58:28;;;;;;;7.72;4.70;;;;;;;10.98;78.21;103460.34;7391346;19;20773;-61
2023/12/17 06:00:56;;;;;;;10.95;5.18;;;;;;;10.96;77.77;103461.34;7389719;19;20022;-62
2023/12/17 06:03:24;;;;;;;12.63;5.20;;;;;;;10.88;78.11;103450.09;7391322;19;20522;-63
2023/12/17 06:05:52;;;;;;;9.07;5.28;;;;;;;10.95;78.27;103472.84;7391652;19;20031;-63
2023/12/17 06:08:20;;;;;;;10.63;5.00;;;;;;;10.96;78.25;103470.16;7391351;19;20039;-63
2023/12/17 06:10:47;;;;;;;9.50;4.90;;;;;;;11.02;78.11;103468.22;7389401;19;20023;-62
2023/12/17 06:13:15;;;;;;;8.70;4.82;;;;;;;11.01;78.02;103458.53;7391047;19;20036;-63
2023/12/17 06:15:43;;;;;;;10.95;4.95;;;;;;;10.96;77.95;103467.50;7390915;19;20070;-63
2023/12/17 06:18:11;;;;;;;10.63;4.90;;;;;;;10.93;78.22;103461.41;7390595;19;20491;-63
2023/12/17 06:20:39;;;;;;;9.15;5.10;;;;;;;10.93;78.03;103461.41;7389581;19;20027;-59
2023/12/17 06:23:07;;;;;;;10.60;4.93;;;;;;;10.90;77.97;103462.38;7391287;19;20044;-63
2023/12/17 06:25:35;;;;;;;10.75;5.25;;;;;;;10.94;77.89;103445.44;7391429;19;20026;-62
2023/12/17 06:28:03;;;;;;;10.50;4.88;;;;;;;10.92;78.02;103451.75;7392204;19;20031;-61
2023/12/17 06:30:32;;;;;;;10.65;4.60;;;;;;;10.92;78.00;103442.00;7396757;19;20484;-63
2023/12/17 06:33:01;;;;;;;11.63;5.22;;;;;;;10.93;77.83;103450.81;7398203;19;20023;-62
2023/12/17 06:35:29;;;;;;;13.80;7.00;;;;;;;10.94;77.74;103456.06;7396836;19;20050;-63
2023/12/17 06:37:57;;;;;;;12.27;6.43;;;;;;;10.95;77.85;103462.22;7398247;19;20033;-64
2023/12/17 06:40:25;;;;;;;12.48;5.65;;;;;;;11.00;77.70;103455.00;7396454;19;20031;-64
2023/12/17 06:42:53;;;;;;;10.35;5.55;;;;;;;10.96;77.94;103458.69;7398157;19;20021;-64
2023/12/17 06:45:20;;;;;;;10.82;5.35;;;;;;;10.91;77.73;103447.34;7398599;19;20511;-64
2023/12/17 06:47:48;;;;;;;11.73;5.10;;;;;;;10.89;77.85;103450.03;7397758;19;20018;-64
2023/12/17 06:50:16;;;;;;;10.02;5.30;;;;;;;10.91;78.07;103457.94;7396904;19;20078;-64
2023/12/17 06:52:45;;;;;;;11.20;5.45;;;;;;;10.93;77.65;103464.94;7396681;19;20022;-64
2023/12/17 06:55:13;;;;;;;10.63;5.05;;;;;;;10.91;77.82;103464.13;7394871;19;20124;-62
2023/12/17 06:57:46;;;;;;;12.23;5.43;;;;;;;10.87;78.14;103458.94;7396629;19;20047;-63
2023/12/17 07:00:14;;;;;;;;;;;;;;;10.69;77.97;103469.22;7396175;19;20022;-62
2023/12/17 07:02:43;;;;;;;10.95;5.18;;;;;;;10.75;78.62;103465.50;7397069;19;19922;-64
2023/12/17 07:05:11;;;;;;;9.30;5.13;;;;;;;10.85;78.15;103471.41;7398114;19;20015;-62
2023/12/17 07:07:42;;;;;;;11.23;5.38;;;;;;;10.84;77.93;103470.53;7397050;19;20397;-63
2023/12/17 07:10:12;;;;;;;9.77;5.40;;;;;;;10.86;77.92;103459.88;7395366;19;20432;-63
2023/12/17 07:12:40;;;;;;;10.98;5.53;;;;;;;10.86;77.99;103470.47;7396922;19;20101;-64
2023/12/17 07:15:09;;;;;;;10.93;5.63;;;;;;;10.86;77.94;103468.69;7396502;19;20017;-65
2023/12/17 07:17:37;;;;;;;14.13;6.00;;;;;;;10.82;78.11;103480.31;7395050;19;20039;-65
2023/12/17 07:20:08;;;;;;;10.98;5.75;;;;;;;10.82;78.02;103467.06;7394970;19;20057;-66
2023/12/17 07:22:36;;;;;;;11.50;5.47;;;;;;;10.82;77.96;103463.53;7396019;19;20019;-66
2023/12/17 07:25:05;;;;;;;12.15;6.15;;;;;;;10.85;77.75;103458.16;7396459;19;20086;-66
2023/12/17 07:27:33;;;;;;;11.93;5.75;;;;;;;10.83;77.66;103452.88;7396555;19;20022;-66
2023/12/17 07:30:01;;;;;;;11.15;5.82;;;;;;;10.84;77.55;103451.97;7395432;19;20412;-66
2023/12/17 07:32:29;;;;;;;12.52;5.95;;;;;;;10.80;77.71;103450.34;7395875;19;20019;-66
2023/12/17 07:34:57;;;;;;;11.23;5.82;;;;;;;10.78;77.48;103443.34;7395897;19;20027;-64
2023/12/17 07:37:25;;;;;;;11.27;6.35;;;;;;;10.85;77.27;103452.84;7395804;19;20019;-64
2023/12/17 07:39:53;;;;;;;10.60;5.70;;;;;;;10.81;77.29;103448.56;7393304;19;20039;-63
2023/12/17 07:42:20;;;;;;;12.15;5.72;;;;;;;10.84;77.02;103448.47;7395179;19;20362;-64
2023/12/17 07:44:50;;;;;;;11.70;5.80;;;;;;;10.88;77.18;103442.16;7395965;19;20035;-64
2023/12/17 07:47:18;;;;;;;11.82;6.03;;;;;;;10.78;77.09;103449.50;7395401;19;20081;-64
2023/12/17 07:49:46;;;;;;;11.65;5.80;;;;;;;10.80;77.16;103450.34;7395333;19;20022;-64
2023/12/17 07:52:15;;;;;;;10.75;5.43;;;;;;;10.81;76.89;103446.78;7394842;19;20025;-64
2023/12/17 07:54:43;;;;;;;11.25;5.85;;;;;;;10.87;77.06;103435.97;7395265;19;20550;-66
2023/12/17 07:57:10;;;;;;;13.38;5.90;;;;;;;10.85;76.43;103437.81;7394834;19;20072;-64
2023/12/17 07:59:38;;;;;;;10.85;5.72;;;;;;;10.82;76.95;103447.63;7395007;19;20105;-64
2023/12/17 08:02:06;;;;;;;10.45;5.97;;;;;;;10.79;77.19;103445.94;7392929;19;20039;-64
2023/12/17 08:04:36;;;;;;;9.80;5.35;;;;;;;10.85;76.82;103437.81;7394886;19;20019;-64
2023/12/17 08:07:04;;;;;;;10.00;5.80;;;;;;;10.86;76.92;103434.22;7394972;19;20010;-64
2023/12/17 08:09:35;;;;;;;10.50;5.95;;;;;;;10.84;76.69;103445.81;7394863;19;20044;-64
2023/12/17 08:12:05;;;;;;;9.55;5.43;;;;;;;10.79;76.84;103440.63;7394373;19;20018;-64
2023/12/17 08:14:33;;;;;;;10.52;6.07;;;;;;;10.78;76.86;103433.59;7394968;19;20023;-64
2023/12/17 08:17:01;;;;;;;12.07;6.45;;;;;;;10.77;77.21;103426.59;7394473;19;20022;-63
2023/12/17 08:19:32;;;;;;;11.95;6.45;;;;;;;10.70;77.20;103419.72;7392835;19;20025;-64
2023/12/17 08:22:00;;;;;;;12.57;6.38;;;;;;;10.69;77.19;103421.53;7391918;19;20043;-63
2023/12/17 08:24:29;;;;;;;10.95;6.28;;;;;;;10.74;76.98;103421.38;7395058;19;20030;-62
2023/12/17 08:26:59;;;;;;;11.27;6.18;;;;;;;10.76;76.61;103414.25;7395171;19;20063;-62
2023/12/17 08:29:29;;;;;;;9.50;6.07;;;;;;;10.77;76.74;103425.72;7393122;19;20029;-62
2023/12/17 08:31:57;;;;;;;10.75;5.72;;;;;;;10.77;76.71;103421.28;7394092;19;20468;-63
2023/12/17 08:34:25;;;;;;;10.80;6.22;;;;;;;10.82;76.11;103429.94;7394740;19;20429;-64
2023/12/17 08:36:53;;;;;;;9.57;5.78;;;;;;;10.82;76.19;103426.44;7394583;19;20018;-63
2023/12/17 08:39:23;;;;;;;10.88;5.47;;;;;;;10.77;76.33;103421.28;7394220;19;20007;-64
2023/12/17 08:41:51;;;;;;;9.75;5.75;;;;;;;10.76;76.63;103419.56;7392314;19;20047;-63
2023/12/17 08:44:22;;;;;;;9.68;5.95;;;;;;;10.75;76.44;103409.84;7394581;19;20131;-64
2023/12/17 08:46:51;;;;;;;10.15;6.28;;;;;;;10.74;76.43;103408.97;7395281;19;20019;-63
2023/12/17 08:49:19;;;;;;;9.93;5.40;;;;;;;10.76;76.12;103418.66;7394162;19;20015;-63
2023/12/17 08:51:47;;;;;;;9.05;5.68;;;;;;;10.79;76.48;103419.44;7390425;19;20074;-64
2023/12/17 08:54:15;;;;;;;10.98;5.60;;;;;;;10.84;76.13;103425.47;7395189;19;20014;-63
2023/12/17 08:56:43;;;;;;;9.95;5.88;;;;;;;10.90;75.88;103424.41;7394524;19;20022;-64
2023/12/17 08:59:12;;;;;;;10.07;5.85;;;;;;;10.87;76.19;103424.50;7395067;19;20018;-63
2023/12/17 09:01:40;;;;;;;8.45;5.45;;;;;;;10.87;75.95;103420.06;7391523;19;20023;-64
2023/12/17 09:04:08;;;;;;;9.32;5.47;;;;;;;10.88;75.91;103420.94;7393761;19;20022;-63
2023/12/17 09:06:47;;;;;;;10.75;6.18;;;;;;;10.95;75.50;103417.16;7393649;19;20015;-64
2023/12/17 09:09:15;;;;;;;13.13;6.00;;;;;;;10.85;75.84;103418.38;7394105;19;20032;-64
2023/12/17 09:11:43;;;;;;;10.75;5.95;;;;;;;10.82;76.08;103426.44;7391618;19;20057;-64
2023/12/17 09:14:11;;;;;;;10.45;6.07;;;;;;;10.89;75.88;103420.03;7393487;19;20014;-64
2023/12/17 09:16:39;;;;;;;9.07;5.60;;;;;;;10.94;75.39;103420.72;7393762;19;20027;-64
2023/12/17 09:19:07;;;;;;;7.88;5.40;;;;;;;10.88;75.38;103411.22;7393390;19;20018;-64
2023/12/17 09:21:38;;;;;;;10.10;5.63;;;;;;;10.83;75.75;103409.59;7391606;19;20055;-63
2023/12/17 09:24:06;;;;;;;8.70;5.20;;;;;;;10.86;75.55;103409.50;7393865;19;20039;-63
2023/12/17 09:26:34;;;;;;;9.80;5.85;;;;;;;10.85;75.68;103416.59;7392983;19;20368;-63
2023/12/17 09:29:02;;;;;;;11.77;5.28;;;;;;;10.90;75.72;103411.16;7393185;19;20371;-64
2023/12/17 09:31:30;;;;;;;9.68;5.53;;;;;;;10.96;75.55;103403.00;7390778;19;20022;-62
2023/12/17 09:33:58;;;;;;;11.02;5.97;;;;;;;10.94;75.36;103412.78;7392658;19;20019;-62
2023/12/17 09:36:27;;;;;;;8.80;6.05;;;;;;;10.95;75.49;103414.50;7391958;19;20018;-63
2023/12/17 09:38:55;;;;;;;11.07;5.90;;;;;;;10.96;75.72;103419.78;7393148;19;20090;-65
2023/12/17 09:41:23;;;;;;;10.50;6.80;;;;;;;11.01;75.65;103410.81;7390539;19;20043;-65
2023/12/17 09:44:00;;;;;;;12.88;7.32;;;;;;;11.04;75.59;103419.53;7390433;19;20015;-64
2023/12/17 09:46:28;;;;;;;12.63;6.63;;;;;;;11.01;75.58;103419.63;7390029;19;20417;-63
2023/12/17 09:49:01;;;;;;;12.10;5.43;;;;;;;10.97;75.80;103420.63;7391854;19;20015;-65
2023/12/17 09:51:36;;;;;;;10.93;5.57;;;;;;;10.95;75.44;103433.06;7389705;19;20381;-65
2023/12/17 09:54:05;;;;;;;9.35;5.20;;;;;;;10.94;75.59;103424.25;7389855;19;20039;-62
2023/12/17 09:56:46;;;;;;;10.70;4.43;;;;;;;10.95;75.44;103433.97;7392405;19;20047;-62
2023/12/17 09:59:15;;;;;;;10.98;4.60;;;;;;;10.95;75.89;103426.00;7392067;19;20033;-62
2023/12/17 10:01:43;;;;;;;9.02;4.25;;;;;;;10.90;75.94;103424.41;7389479;19;20019;-64
2023/12/17 10:04:12;;;;;;;7.38;4.43;;;;;;;10.99;75.54;103426.78;7397806;19;20411;-66
2023/12/17 10:06:40;;;;;;;9.00;4.38;;;;;;;10.95;75.78;103422.47;7401449;19;20018;-65
2023/12/17 10:09:08;;;;;;;9.20;4.40;;;;;;;10.98;75.69;103422.38;7400935;19;20015;-66
2023/12/17 10:11:39;;;;;;;9.95;4.80;;;;;;;10.91;75.82;103418.16;7396646;19;20026;-65
2023/12/17 10:14:23;;;;;;;7.65;4.40;;;;;;;11.05;75.39;103417.72;7399373;19;20022;-65
2023/12/17 10:16:51;;;;;;;8.25;4.85;;;;;;;11.07;75.62;103431.81;7397738;19;20353;-65
2023/12/17 10:19:19;;;;;;;8.30;4.63;;;;;;;11.04;75.57;103400.09;7398879;19;20018;-65
2023/12/17 10:21:47;;;;;;;10.90;5.05;;;;;;;11.12;75.60;103412.19;7396084;19;20022;-65
2023/12/17 10:24:15;;;;;;;9.60;5.10;;;;;;;11.11;75.26;103391.88;7398891;19;20047;-65
2023/12/17 10:26:55;;;;;;;9.73;4.93;;;;;;;11.07;75.49;103400.00;7398701;19;20018;-65
2023/12/17 10:29:25;;;;;;;11.73;5.43;;;;;;;11.02;75.84;103392.19;7400251;19;20007;-65
2023/12/17 10:31:53;;;;;;;10.35;5.53;;;;;;;10.94;76.17;103388.91;7395655;19;20011;-63
2023/12/17 10:34:24;;;;;;;9.38;5.50;;;;;;;11.03;75.77;103370.06;7397230;19;20398;-62
2023/12/17 10:36:53;;;;;;;10.23;5.38;;;;;;;11.12;75.75;103379.50;7398906;19;20089;-63
2023/12/17 10:39:24;;;;;;;11.15;6.43;;;;;;;11.02;75.75;103373.63;7398838;19;20035;-62
2023/12/17 10:41:58;;;;;;;11.13;6.35;;;;;;;11.00;76.05;103366.66;7393797;19;20044;-65
2023/12/17 10:44:28;;;;;;;10.90;6.00;;;;;;;11.17;75.79;103366.94;7395507;19;20018;-64
2023/12/17 10:46:59;;;;;;;12.60;6.90;;;;;;;11.30;75.51;103362.97;7395848;19;20026;-64
2023/12/17 10:49:28;;;;;;;15.93;6.53;;;;;;;11.26;75.35;103361.34;7395561;19;20026;-63
2023/12/17 10:51:58;;;;;;;12.32;6.10;;;;;;;11.20;75.63;103348.25;7394743;19;20026;-62
2023/12/17 10:54:26;;;;;;;12.18;6.60;;;;;;;11.25;75.64;103354.25;7397614;19;20015;-61
2023/12/17 10:57:00;;;;;;;12.80;6.95;;;;;;;11.29;75.57;103360.34;7396414;19;20018;-63
2023/12/17 10:59:36;;;;;;;15.18;7.82;;;;;;;11.15;75.77;103348.44;7398098;19;20024;-62
2023/12/17 11:02:10;;;;;;;14.68;7.45;;;;;;;11.03;76.31;103338.25;7393911;19;20025;-62
2023/12/17 11:04:45;;;;;;;15.07;8.15;;;;;;;11.00;76.41;103333.03;7396681;19;20015;-62
2023/12/17 11:07:20;;;;;;;13.00;7.60;;;;;;;11.12;75.89;103331.75;7396617;19;20018;-62
2023/12/17 11:10:11;;;;;;;16.77;8.23;;;;;;;11.09;76.05;103330.06;7395661;19;20416;-62
2023/12/17 11:12:39;;;;;;;16.27;8.25;;;;;;;11.10;76.25;103325.63;7395445;19;20057;-61
2023/12/17 11:15:08;;;;;;;15.57;8.50;;;;;;;11.07;76.32;103318.66;7393979;19;20018;-62
2023/12/17 11:17:38;;;;;;;15.77;8.40;;;;;;;11.13;76.29;103322.88;7396223;19;20389;-61
2023/12/17 11:20:11;;;;;;;16.42;8.30;;;;;;;11.13;76.31;103318.44;7393745;19;20022;-64
2023/12/17 11:22:40;;;;;;;15.77;8.70;;;;;;;11.08;76.48;103320.38;7394820;19;20043;-64
2023/12/17 11:25:11;;;;;;;15.45;8.82;;;;;;;11.14;76.11;103317.53;7395418;19;20024;-64